sensor_id;sensor_type;location;lat;lon;timestamp;P1;durP1;ratioP1;P2;durP2;ratioP2
19257;SDS011;9763;48.780;9.212;2023-08-21T00:01:22;3.40;;;2.37;;
19257;SDS011;9763;48.780;9.212;2023-08-21T00:04:46;2.60;;;2.40;;
19257;SDS011;9763;48.780;9.212;2023-08-21T00:08:10;2.73;;;2.43;;
19257;SDS011;9763;48.780;9.212;2023-08-21T00:11:33;2.70;;;2.50;;
19257;SDS011;9763;48.780;9.212;2023-08-21T00:14:58;2.63;;;2.43;;
19257;SDS011;9763;48.780;9.212;2023-08-21T00:18:22;3.10;;;2.60;;
19257;SDS011;9763;48.780;9.212;2023-08-21T00:21:46;2.60;;;2.40;;
19257;SDS011;9763;48.780;9.212;2023-08-21T00:25:09;3.20;;;2.90;;
19257;SDS011;9763;48.780;9.212;2023-08-21T00:28:33;2.90;;;2.60;;
19257;SDS011;9763;48.780;9.212;2023-08-21T00:31:58;2.63;;;2.43;;
19257;SDS011;9763;48.780;9.212;2023-08-21T00:35:22;2.83;;;2.53;;
19257;SDS011;9763;48.780;9.212;2023-08-21T00:38:45;3.47;;;2.33;;
19257;SDS011;9763;48.780;9.212;2023-08-21T00:42:09;3.47;;;2.70;;
19257;SDS011;9763;48.780;9.212;2023-08-21T00:45:32;3.60;;;2.70;;
19257;SDS011;9763;48.780;9.212;2023-08-21T00:48:57;3.10;;;2.80;;
19257;SDS011;9763;48.780;9.212;2023-08-21T00:52:22;5.40;;;2.70;;
19257;SDS011;9763;48.780;9.212;2023-08-21T00:55:46;3.17;;;2.87;;
19257;SDS011;9763;48.780;9.212;2023-08-21T00:59:11;3.73;;;2.70;;
19257;SDS011;9763;48.780;9.212;2023-08-21T01:02:35;3.07;;;2.77;;
19257;SDS011;9763;48.780;9.212;2023-08-21T01:06:03;2.80;;;2.50;;
19257;SDS011;9763;48.780;9.212;2023-08-21T01:09:27;3.37;;;2.60;;
19257;SDS011;9763;48.780;9.212;2023-08-21T01:16:50;3.03;;;2.80;;
19257;SDS011;9763;48.780;9.212;2023-08-21T01:20:21;3.07;;;2.77;;
19257;SDS011;9763;48.780;9.212;2023-08-21T01:23:47;3.23;;;2.93;;
19257;SDS011;9763;48.780;9.212;2023-08-21T01:27:11;2.70;;;2.50;;
19257;SDS011;9763;48.780;9.212;2023-08-21T01:30:36;3.17;;;2.87;;
19257;SDS011;9763;48.780;9.212;2023-08-21T01:34:01;2.70;;;2.50;;
19257;SDS011;9763;48.780;9.212;2023-08-21T01:37:32;2.93;;;2.73;;
19257;SDS011;9763;48.780;9.212;2023-08-21T01:40:58;3.60;;;2.90;;
19257;SDS011;9763;48.780;9.212;2023-08-21T01:44:22;3.20;;;2.90;;
19257;SDS011;9763;48.780;9.212;2023-08-21T01:47:45;3.33;;;2.40;;
19257;SDS011;9763;48.780;9.212;2023-08-21T01:51:09;3.60;;;3.30;;
19257;SDS011;9763;48.780;9.212;2023-08-21T01:54:33;2.80;;;2.60;;
19257;SDS011;9763;48.780;9.212;2023-08-21T01:57:58;3.40;;;3.10;;
19257;SDS011;9763;48.780;9.212;2023-08-21T02:01:22;3.23;;;2.37;;
19257;SDS011;9763;48.780;9.212;2023-08-21T02:04:46;4.47;;;3.53;;
19257;SDS011;9763;48.780;9.212;2023-08-21T02:08:12;2.90;;;2.70;;
19257;SDS011;9763;48.780;9.212;2023-08-21T02:11:36;3.10;;;2.80;;
19257;SDS011;9763;48.780;9.212;2023-08-21T02:15:01;2.77;;;2.57;;
19257;SDS011;9763;48.780;9.212;2023-08-21T02:18:29;3.37;;;2.93;;
19257;SDS011;9763;48.780;9.212;2023-08-21T02:21:52;3.17;;;2.87;;
19257;SDS011;9763;48.780;9.212;2023-08-21T02:25:16;2.83;;;2.63;;
19257;SDS011;9763;48.780;9.212;2023-08-21T02:28:41;3.10;;;2.80;;
19257;SDS011;9763;48.780;9.212;2023-08-21T02:32:07;2.80;;;2.60;;
19257;SDS011;9763;48.780;9.212;2023-08-21T02:35:33;3.07;;;2.87;;
19257;SDS011;9763;48.780;9.212;2023-08-21T02:38:57;3.10;;;2.80;;
19257;SDS011;9763;48.780;9.212;2023-08-21T02:42:21;3.50;;;3.20;;
19257;SDS011;9763;48.780;9.212;2023-08-21T02:45:45;3.07;;;2.80;;
19257;SDS011;9763;48.780;9.212;2023-08-21T02:49:10;3.03;;;2.83;;
19257;SDS011;9763;48.780;9.212;2023-08-21T02:52:34;3.70;;;3.00;;
19257;SDS011;9763;48.780;9.212;2023-08-21T02:55:59;3.10;;;2.80;;
19257;SDS011;9763;48.780;9.212;2023-08-21T02:59:23;2.60;;;2.40;;
19257;SDS011;9763;48.780;9.212;2023-08-21T03:02:46;3.20;;;2.70;;
19257;SDS011;9763;48.780;9.212;2023-08-21T03:06:12;3.87;;;3.10;;
19257;SDS011;9763;48.780;9.212;2023-08-21T03:09:36;2.70;;;2.50;;
19257;SDS011;9763;48.780;9.212;2023-08-21T03:13:00;2.77;;;2.57;;
19257;SDS011;9763;48.780;9.212;2023-08-21T03:16:24;3.50;;;2.67;;
19257;SDS011;9763;48.780;9.212;2023-08-21T03:19:47;3.20;;;2.90;;
19257;SDS011;9763;48.780;9.212;2023-08-21T03:23:12;3.23;;;3.00;;
19257;SDS011;9763;48.780;9.212;2023-08-21T03:26:37;4.03;;;2.70;;
19257;SDS011;9763;48.780;9.212;2023-08-21T03:30:01;2.93;;;2.63;;
19257;SDS011;9763;48.780;9.212;2023-08-21T03:33:25;3.10;;;2.80;;
19257;SDS011;9763;48.780;9.212;2023-08-21T03:36:48;2.90;;;2.70;;
19257;SDS011;9763;48.780;9.212;2023-08-21T03:40:14;5.60;;;2.70;;
19257;SDS011;9763;48.780;9.212;2023-08-21T03:43:40;2.90;;;2.63;;
19257;SDS011;9763;48.780;9.212;2023-08-21T03:47:04;3.10;;;2.80;;
19257;SDS011;9763;48.780;9.212;2023-08-21T03:50:33;3.33;;;3.00;;
19257;SDS011;9763;48.780;9.212;2023-08-21T03:53:57;2.90;;;2.70;;
19257;SDS011;9763;48.780;9.212;2023-08-21T03:57:23;3.40;;;3.10;;
19257;SDS011;9763;48.780;9.212;2023-08-21T04:00:47;2.90;;;2.70;;
19257;SDS011;9763;48.780;9.212;2023-08-21T04:04:11;3.33;;;2.90;;
19257;SDS011;9763;48.780;9.212;2023-08-21T04:07:34;2.83;;;2.63;;
19257;SDS011;9763;48.780;9.212;2023-08-21T04:10:58;3.37;;;3.07;;
19257;SDS011;9763;48.780;9.212;2023-08-21T04:14:24;3.50;;;3.20;;
19257;SDS011;9763;48.780;9.212;2023-08-21T04:17:48;2.70;;;2.50;;
19257;SDS011;9763;48.780;9.212;2023-08-21T04:21:12;2.90;;;2.57;;
19257;SDS011;9763;48.780;9.212;2023-08-21T04:24:36;3.10;;;2.80;;
19257;SDS011;9763;48.780;9.212;2023-08-21T04:28:00;3.20;;;2.90;;
19257;SDS011;9763;48.780;9.212;2023-08-21T04:31:26;4.10;;;3.70;;
19257;SDS011;9763;48.780;9.212;2023-08-21T04:34:50;2.83;;;2.63;;
19257;SDS011;9763;48.780;9.212;2023-08-21T04:38:13;2.93;;;2.73;;
19257;SDS011;9763;48.780;9.212;2023-08-21T04:41:39;3.07;;;2.80;;
19257;SDS011;9763;48.780;9.212;2023-08-21T04:45:03;3.47;;;3.17;;
19257;SDS011;9763;48.780;9.212;2023-08-21T04:48:31;3.63;;;2.67;;
19257;SDS011;9763;48.780;9.212;2023-08-21T04:51:56;3.03;;;2.77;;
19257;SDS011;9763;48.780;9.212;2023-08-21T04:55:20;4.50;;;2.83;;
19257;SDS011;9763;48.780;9.212;2023-08-21T04:58:46;4.10;;;2.80;;
19257;SDS011;9763;48.780;9.212;2023-08-21T05:02:11;3.23;;;2.93;;
19257;SDS011;9763;48.780;9.212;2023-08-21T05:05:37;4.43;;;3.00;;
19257;SDS011;9763;48.780;9.212;2023-08-21T05:09:01;3.80;;;2.70;;
19257;SDS011;9763;48.780;9.212;2023-08-21T05:12:25;3.10;;;2.80;;
19257;SDS011;9763;48.780;9.212;2023-08-21T05:15:51;3.13;;;2.83;;
19257;SDS011;9763;48.780;9.212;2023-08-21T05:19:17;3.20;;;2.90;;
19257;SDS011;9763;48.780;9.212;2023-08-21T05:22:42;3.17;;;2.97;;
19257;SDS011;9763;48.780;9.212;2023-08-21T05:26:06;3.63;;;2.93;;
19257;SDS011;9763;48.780;9.212;2023-08-21T05:29:30;3.40;;;3.10;;
19257;SDS011;9763;48.780;9.212;2023-08-21T05:32:54;3.30;;;3.00;;
19257;SDS011;9763;48.780;9.212;2023-08-21T05:36:31;3.17;;;2.87;;
19257;SDS011;9763;48.780;9.212;2023-08-21T05:40:04;3.10;;;2.80;;
19257;SDS011;9763;48.780;9.212;2023-08-21T05:43:30;2.97;;;2.77;;
19257;SDS011;9763;48.780;9.212;2023-08-21T05:46:53;3.70;;;2.60;;
19257;SDS011;9763;48.780;9.212;2023-08-21T05:50:17;2.93;;;2.60;;
19257;SDS011;9763;48.780;9.212;2023-08-21T05:53:41;2.90;;;2.63;;
19257;SDS011;9763;48.780;9.212;2023-08-21T05:57:06;2.63;;;2.43;;
19257;SDS011;9763;48.780;9.212;2023-08-21T06:00:30;3.03;;;2.80;;
19257;SDS011;9763;48.780;9.212;2023-08-21T06:03:57;2.63;;;2.43;;
19257;SDS011;9763;48.780;9.212;2023-08-21T06:07:45;3.30;;;2.67;;
19257;SDS011;9763;48.780;9.212;2023-08-21T06:11:09;3.13;;;2.83;;
19257;SDS011;9763;48.780;9.212;2023-08-21T06:14:34;2.60;;;2.40;;
19257;SDS011;9763;48.780;9.212;2023-08-21T06:17:58;3.83;;;2.37;;
19257;SDS011;9763;48.780;9.212;2023-08-21T06:21:22;2.73;;;2.43;;
19257;SDS011;9763;48.780;9.212;2023-08-21T06:24:46;2.90;;;2.30;;
19257;SDS011;9763;48.780;9.212;2023-08-21T06:28:11;4.50;;;2.53;;
19257;SDS011;9763;48.780;9.212;2023-08-21T06:31:36;2.30;;;2.10;;
19257;SDS011;9763;48.780;9.212;2023-08-21T06:35:00;2.73;;;2.53;;
19257;SDS011;9763;48.780;9.212;2023-08-21T06:38:24;2.87;;;2.43;;
19257;SDS011;9763;48.780;9.212;2023-08-21T06:41:48;6.47;;;2.40;;
19257;SDS011;9763;48.780;9.212;2023-08-21T06:45:13;3.00;;;2.43;;
19257;SDS011;9763;48.780;9.212;2023-08-21T06:48:39;2.90;;;2.60;;
19257;SDS011;9763;48.780;9.212;2023-08-21T06:52:03;2.90;;;2.47;;
19257;SDS011;9763;48.780;9.212;2023-08-21T06:55:27;3.07;;;2.63;;
19257;SDS011;9763;48.780;9.212;2023-08-21T06:58:51;3.10;;;2.80;;
19257;SDS011;9763;48.780;9.212;2023-08-21T07:02:16;3.50;;;2.67;;
19257;SDS011;9763;48.780;9.212;2023-08-21T07:05:45;3.10;;;2.80;;
19257;SDS011;9763;48.780;9.212;2023-08-21T07:09:10;2.50;;;2.30;;
19257;SDS011;9763;48.780;9.212;2023-08-21T07:12:33;3.60;;;2.63;;
19257;SDS011;9763;48.780;9.212;2023-08-21T07:15:58;3.60;;;2.50;;
19257;SDS011;9763;48.780;9.212;2023-08-21T07:19:24;3.20;;;2.77;;
19257;SDS011;9763;48.780;9.212;2023-08-21T07:22:49;4.30;;;2.70;;
19257;SDS011;9763;48.780;9.212;2023-08-21T07:26:12;5.53;;;2.50;;
19257;SDS011;9763;48.780;9.212;2023-08-21T07:29:36;3.53;;;2.87;;
19257;SDS011;9763;48.780;9.212;2023-08-21T07:33:00;5.27;;;2.60;;
19257;SDS011;9763;48.780;9.212;2023-08-21T07:36:24;2.70;;;2.30;;
19257;SDS011;9763;48.780;9.212;2023-08-21T07:39:49;3.30;;;2.67;;
19257;SDS011;9763;48.780;9.212;2023-08-21T07:43:13;2.90;;;2.40;;
19257;SDS011;9763;48.780;9.212;2023-08-21T07:46:36;2.83;;;2.53;;
19257;SDS011;9763;48.780;9.212;2023-08-21T07:50:00;2.50;;;2.20;;
19257;SDS011;9763;48.780;9.212;2023-08-21T07:53:23;3.20;;;2.67;;
19257;SDS011;9763;48.780;9.212;2023-08-21T07:56:49;2.47;;;2.27;;
19257;SDS011;9763;48.780;9.212;2023-08-21T08:00:13;2.70;;;2.50;;
19257;SDS011;9763;48.780;9.212;2023-08-21T08:03:37;2.43;;;2.23;;
19257;SDS011;9763;48.780;9.212;2023-08-21T08:07:01;3.03;;;2.40;;
19257;SDS011;9763;48.780;9.212;2023-08-21T08:10:25;2.40;;;2.20;;
19257;SDS011;9763;48.780;9.212;2023-08-21T08:13:50;2.60;;;2.40;;
19257;SDS011;9763;48.780;9.212;2023-08-21T08:17:13;2.70;;;2.50;;
19257;SDS011;9763;48.780;9.212;2023-08-21T08:20:37;3.17;;;2.60;;
19257;SDS011;9763;48.780;9.212;2023-08-21T08:24:02;2.47;;;2.20;;
19257;SDS011;9763;48.780;9.212;2023-08-21T08:27:25;2.77;;;2.30;;
19257;SDS011;9763;48.780;9.212;2023-08-21T08:30:51;2.50;;;2.20;;
19257;SDS011;9763;48.780;9.212;2023-08-21T08:34:14;2.53;;;2.00;;
19257;SDS011;9763;48.780;9.212;2023-08-21T08:37:42;2.80;;;2.23;;
19257;SDS011;9763;48.780;9.212;2023-08-21T08:41:07;2.60;;;2.20;;
19257;SDS011;9763;48.780;9.212;2023-08-21T08:44:39;4.10;;;3.03;;
19257;SDS011;9763;48.780;9.212;2023-08-21T08:48:07;2.90;;;2.50;;
19257;SDS011;9763;48.780;9.212;2023-08-21T08:51:30;3.17;;;2.27;;
19257;SDS011;9763;48.780;9.212;2023-08-21T08:54:58;3.90;;;2.60;;
19257;SDS011;9763;48.780;9.212;2023-08-21T08:58:22;2.50;;;2.27;;
19257;SDS011;9763;48.780;9.212;2023-08-21T09:01:46;2.43;;;2.23;;
19257;SDS011;9763;48.780;9.212;2023-08-21T09:05:11;2.70;;;2.50;;
19257;SDS011;9763;48.780;9.212;2023-08-21T09:08:35;4.33;;;2.20;;
19257;SDS011;9763;48.780;9.212;2023-08-21T09:11:58;2.40;;;2.07;;
19257;SDS011;9763;48.780;9.212;2023-08-21T09:15:22;2.63;;;2.40;;
19257;SDS011;9763;48.780;9.212;2023-08-21T09:19:02;2.20;;;2.00;;
19257;SDS011;9763;48.780;9.212;2023-08-21T09:22:27;2.40;;;2.20;;
19257;SDS011;9763;48.780;9.212;2023-08-21T09:25:51;2.50;;;2.30;;
19257;SDS011;9763;48.780;9.212;2023-08-21T09:29:14;3.10;;;2.47;;
19257;SDS011;9763;48.780;9.212;2023-08-21T09:32:51;2.40;;;2.00;;
19257;SDS011;9763;48.780;9.212;2023-08-21T09:36:17;2.00;;;1.80;;
19257;SDS011;9763;48.780;9.212;2023-08-21T09:39:42;2.53;;;2.13;;
19257;SDS011;9763;48.780;9.212;2023-08-21T09:43:07;2.17;;;1.70;;
19257;SDS011;9763;48.780;9.212;2023-08-21T09:46:33;2.13;;;1.93;;
19257;SDS011;9763;48.780;9.212;2023-08-21T09:49:57;2.10;;;1.87;;
19257;SDS011;9763;48.780;9.212;2023-08-21T09:53:22;2.00;;;1.90;;
19257;SDS011;9763;48.780;9.212;2023-08-21T09:56:47;3.63;;;2.67;;
19257;SDS011;9763;48.780;9.212;2023-08-21T10:00:14;2.23;;;1.80;;
19257;SDS011;9763;48.780;9.212;2023-08-21T10:03:42;2.43;;;2.13;;
19257;SDS011;9763;48.780;9.212;2023-08-21T10:07:09;2.20;;;1.80;;
19257;SDS011;9763;48.780;9.212;2023-08-21T10:10:35;1.73;;;1.63;;
19257;SDS011;9763;48.780;9.212;2023-08-21T10:14:02;2.00;;;1.70;;
19257;SDS011;9763;48.780;9.212;2023-08-21T10:17:26;2.43;;;1.90;;
19257;SDS011;9763;48.780;9.212;2023-08-21T10:20:51;2.10;;;1.90;;
19257;SDS011;9763;48.780;9.212;2023-08-21T10:27:59;2.50;;;1.53;;
19257;SDS011;9763;48.780;9.212;2023-08-21T10:31:26;4.57;;;2.40;;
19257;SDS011;9763;48.780;9.212;2023-08-21T10:34:53;2.00;;;1.80;;
19257;SDS011;9763;48.780;9.212;2023-08-21T10:38:17;2.40;;;2.00;;
19257;SDS011;9763;48.780;9.212;2023-08-21T10:41:41;2.13;;;1.90;;
19257;SDS011;9763;48.780;9.212;2023-08-21T10:45:15;2.53;;;1.93;;
19257;SDS011;9763;48.780;9.212;2023-08-21T10:48:41;1.70;;;1.57;;
19257;SDS011;9763;48.780;9.212;2023-08-21T10:52:05;2.93;;;2.00;;
19257;SDS011;9763;48.780;9.212;2023-08-21T10:55:31;1.77;;;1.57;;
19257;SDS011;9763;48.780;9.212;2023-08-21T10:58:55;4.10;;;2.13;;
19257;SDS011;9763;48.780;9.212;2023-08-21T11:02:18;1.80;;;1.70;;
19257;SDS011;9763;48.780;9.212;2023-08-21T11:05:43;2.37;;;1.87;;
19257;SDS011;9763;48.780;9.212;2023-08-21T11:09:12;3.20;;;1.80;;
19257;SDS011;9763;48.780;9.212;2023-08-21T11:12:36;2.70;;;1.83;;
19257;SDS011;9763;48.780;9.212;2023-08-21T11:16:01;2.80;;;1.97;;
19257;SDS011;9763;48.780;9.212;2023-08-21T11:19:27;2.40;;;1.70;;
19257;SDS011;9763;48.780;9.212;2023-08-21T11:22:57;2.33;;;1.80;;
19257;SDS011;9763;48.780;9.212;2023-08-21T11:26:22;2.10;;;1.73;;
19257;SDS011;9763;48.780;9.212;2023-08-21T11:29:49;2.63;;;2.20;;
19257;SDS011;9763;48.780;9.212;2023-08-21T11:33:14;4.60;;;2.00;;
19257;SDS011;9763;48.780;9.212;2023-08-21T11:36:38;2.07;;;1.87;;
19257;SDS011;9763;48.780;9.212;2023-08-21T11:40:06;5.20;;;1.90;;
19257;SDS011;9763;48.780;9.212;2023-08-21T11:43:35;2.00;;;1.80;;
19257;SDS011;9763;48.780;9.212;2023-08-21T11:47:00;2.47;;;1.67;;
19257;SDS011;9763;48.780;9.212;2023-08-21T11:50:25;2.67;;;2.30;;
19257;SDS011;9763;48.780;9.212;2023-08-21T11:53:49;2.83;;;2.03;;
19257;SDS011;9763;48.780;9.212;2023-08-21T11:57:15;4.40;;;2.23;;
19257;SDS011;9763;48.780;9.212;2023-08-21T12:00:39;2.23;;;1.93;;
19257;SDS011;9763;48.780;9.212;2023-08-21T12:04:13;2.10;;;1.90;;
19257;SDS011;9763;48.780;9.212;2023-08-21T12:07:38;2.53;;;1.90;;
19257;SDS011;9763;48.780;9.212;2023-08-21T12:11:02;2.57;;;2.03;;
19257;SDS011;9763;48.780;9.212;2023-08-21T12:14:27;3.40;;;2.30;;
19257;SDS011;9763;48.780;9.212;2023-08-21T12:17:51;2.00;;;1.70;;
19257;SDS011;9763;48.780;9.212;2023-08-21T12:21:15;2.93;;;2.07;;
19257;SDS011;9763;48.780;9.212;2023-08-21T12:24:40;2.83;;;2.03;;
19257;SDS011;9763;48.780;9.212;2023-08-21T12:28:06;2.63;;;1.60;;
19257;SDS011;9763;48.780;9.212;2023-08-21T12:31:32;2.30;;;2.10;;
19257;SDS011;9763;48.780;9.212;2023-08-21T12:34:56;2.30;;;1.80;;
19257;SDS011;9763;48.780;9.212;2023-08-21T12:38:19;2.13;;;1.93;;
19257;SDS011;9763;48.780;9.212;2023-08-21T12:41:45;2.23;;;2.00;;
19257;SDS011;9763;48.780;9.212;2023-08-21T12:45:09;2.77;;;1.90;;
19257;SDS011;9763;48.780;9.212;2023-08-21T12:48:35;5.23;;;2.10;;
19257;SDS011;9763;48.780;9.212;2023-08-21T12:51:58;2.53;;;2.10;;
19257;SDS011;9763;48.780;9.212;2023-08-21T12:55:23;2.10;;;1.80;;
19257;SDS011;9763;48.780;9.212;2023-08-21T12:58:47;2.43;;;1.90;;
19257;SDS011;9763;48.780;9.212;2023-08-21T13:02:11;2.73;;;2.00;;
19257;SDS011;9763;48.780;9.212;2023-08-21T13:05:35;2.30;;;1.93;;
19257;SDS011;9763;48.780;9.212;2023-08-21T13:09:00;2.60;;;2.00;;
19257;SDS011;9763;48.780;9.212;2023-08-21T13:12:26;2.60;;;1.97;;
19257;SDS011;9763;48.780;9.212;2023-08-21T13:15:50;2.47;;;2.00;;
19257;SDS011;9763;48.780;9.212;2023-08-21T13:19:15;4.73;;;1.93;;
19257;SDS011;9763;48.780;9.212;2023-08-21T13:22:47;2.43;;;2.00;;
19257;SDS011;9763;48.780;9.212;2023-08-21T13:26:12;2.47;;;2.17;;
19257;SDS011;9763;48.780;9.212;2023-08-21T13:29:36;2.10;;;1.90;;
19257;SDS011;9763;48.780;9.212;2023-08-21T13:33:01;2.23;;;2.00;;
19257;SDS011;9763;48.780;9.212;2023-08-21T13:36:26;4.00;;;1.87;;
19257;SDS011;9763;48.780;9.212;2023-08-21T13:39:52;2.50;;;1.83;;
19257;SDS011;9763;48.780;9.212;2023-08-21T13:43:16;2.80;;;2.00;;
19257;SDS011;9763;48.780;9.212;2023-08-21T13:46:42;3.03;;;2.00;;
19257;SDS011;9763;48.780;9.212;2023-08-21T13:50:07;2.00;;;1.80;;
19257;SDS011;9763;48.780;9.212;2023-08-21T13:53:32;3.20;;;2.03;;
19257;SDS011;9763;48.780;9.212;2023-08-21T13:56:57;2.40;;;2.10;;
19257;SDS011;9763;48.780;9.212;2023-08-21T14:00:21;2.80;;;2.00;;
19257;SDS011;9763;48.780;9.212;2023-08-21T14:03:45;3.60;;;2.30;;
19257;SDS011;9763;48.780;9.212;2023-08-21T14:07:09;3.00;;;1.97;;
19257;SDS011;9763;48.780;9.212;2023-08-21T14:10:33;2.30;;;2.10;;
19257;SDS011;9763;48.780;9.212;2023-08-21T14:13:59;2.50;;;2.30;;
19257;SDS011;9763;48.780;9.212;2023-08-21T14:17:23;3.20;;;2.00;;
19257;SDS011;9763;48.780;9.212;2023-08-21T14:20:47;2.20;;;1.97;;
19257;SDS011;9763;48.780;9.212;2023-08-21T14:24:10;2.93;;;2.10;;
19257;SDS011;9763;48.780;9.212;2023-08-21T14:27:34;2.07;;;1.80;;
19257;SDS011;9763;48.780;9.212;2023-08-21T14:30:59;5.40;;;2.40;;
19257;SDS011;9763;48.780;9.212;2023-08-21T14:34:24;1.93;;;1.73;;
19257;SDS011;9763;48.780;9.212;2023-08-21T14:37:47;2.97;;;2.00;;
19257;SDS011;9763;48.780;9.212;2023-08-21T14:41:11;5.30;;;2.40;;
19257;SDS011;9763;48.780;9.212;2023-08-21T14:44:35;2.33;;;2.13;;
19257;SDS011;9763;48.780;9.212;2023-08-21T14:48:00;2.37;;;2.17;;
19257;SDS011;9763;48.780;9.212;2023-08-21T14:51:25;4.17;;;2.43;;
19257;SDS011;9763;48.780;9.212;2023-08-21T14:54:50;2.80;;;2.17;;
19257;SDS011;9763;48.780;9.212;2023-08-21T14:58:14;2.97;;;2.10;;
19257;SDS011;9763;48.780;9.212;2023-08-21T15:01:37;1.90;;;1.70;;
19257;SDS011;9763;48.780;9.212;2023-08-21T15:05:03;2.50;;;2.20;;
19257;SDS011;9763;48.780;9.212;2023-08-21T15:08:27;2.70;;;2.20;;
19257;SDS011;9763;48.780;9.212;2023-08-21T15:11:51;3.07;;;2.03;;
19257;SDS011;9763;48.780;9.212;2023-08-21T15:15:15;2.30;;;2.10;;
19257;SDS011;9763;48.780;9.212;2023-08-21T15:18:44;2.07;;;1.87;;
19257;SDS011;9763;48.780;9.212;2023-08-21T15:22:10;2.43;;;1.97;;
19257;SDS011;9763;48.780;9.212;2023-08-21T15:25:34;2.30;;;2.07;;
19257;SDS011;9763;48.780;9.212;2023-08-21T15:28:57;2.50;;;2.13;;
19257;SDS011;9763;48.780;9.212;2023-08-21T15:32:23;2.00;;;1.80;;
19257;SDS011;9763;48.780;9.212;2023-08-21T15:35:47;2.80;;;2.07;;
19257;SDS011;9763;48.780;9.212;2023-08-21T15:39:12;2.30;;;1.90;;
19257;SDS011;9763;48.780;9.212;2023-08-21T15:42:36;3.30;;;1.80;;
19257;SDS011;9763;48.780;9.212;2023-08-21T15:46:01;2.73;;;2.27;;
19257;SDS011;9763;48.780;9.212;2023-08-21T15:49:27;2.67;;;2.10;;
19257;SDS011;9763;48.780;9.212;2023-08-21T15:52:50;2.07;;;1.87;;
19257;SDS011;9763;48.780;9.212;2023-08-21T15:56:15;2.87;;;2.10;;
19257;SDS011;9763;48.780;9.212;2023-08-21T15:59:39;2.33;;;2.13;;
19257;SDS011;9763;48.780;9.212;2023-08-21T16:03:04;2.87;;;1.70;;
19257;SDS011;9763;48.780;9.212;2023-08-21T16:06:28;2.27;;;2.07;;
19257;SDS011;9763;48.780;9.212;2023-08-21T16:09:52;2.20;;;2.00;;
19257;SDS011;9763;48.780;9.212;2023-08-21T16:13:18;2.17;;;1.97;;
19257;SDS011;9763;48.780;9.212;2023-08-21T16:16:41;3.80;;;2.10;;
19257;SDS011;9763;48.780;9.212;2023-08-21T16:20:05;2.20;;;2.00;;
19257;SDS011;9763;48.780;9.212;2023-08-21T16:23:30;2.67;;;2.00;;
19257;SDS011;9763;48.780;9.212;2023-08-21T16:26:54;2.47;;;2.00;;
19257;SDS011;9763;48.780;9.212;2023-08-21T16:30:19;3.03;;;2.00;;
19257;SDS011;9763;48.780;9.212;2023-08-21T16:33:43;2.13;;;1.93;;
19257;SDS011;9763;48.780;9.212;2023-08-21T16:37:07;2.10;;;1.73;;
19257;SDS011;9763;48.780;9.212;2023-08-21T16:40:30;3.73;;;2.27;;
19257;SDS011;9763;48.780;9.212;2023-08-21T16:43:54;2.43;;;2.13;;
19257;SDS011;9763;48.780;9.212;2023-08-21T16:47:19;2.90;;;2.00;;
19257;SDS011;9763;48.780;9.212;2023-08-21T16:50:42;2.20;;;2.00;;
19257;SDS011;9763;48.780;9.212;2023-08-21T16:54:06;4.63;;;2.27;;
19257;SDS011;9763;48.780;9.212;2023-08-21T16:57:29;2.40;;;2.20;;
19257;SDS011;9763;48.780;9.212;2023-08-21T17:00:53;2.60;;;2.40;;
19257;SDS011;9763;48.780;9.212;2023-08-21T17:04:18;3.93;;;2.00;;
19257;SDS011;9763;48.780;9.212;2023-08-21T17:07:42;2.10;;;1.80;;
19257;SDS011;9763;48.780;9.212;2023-08-21T17:11:06;2.50;;;2.30;;
19257;SDS011;9763;48.780;9.212;2023-08-21T17:14:30;3.10;;;2.30;;
19257;SDS011;9763;48.780;9.212;2023-08-21T17:17:53;2.37;;;1.97;;
19257;SDS011;9763;48.780;9.212;2023-08-21T17:21:20;2.20;;;2.00;;
19257;SDS011;9763;48.780;9.212;2023-08-21T17:24:44;2.20;;;2.00;;
19257;SDS011;9763;48.780;9.212;2023-08-21T17:28:08;3.60;;;2.00;;
19257;SDS011;9763;48.780;9.212;2023-08-21T17:31:31;2.40;;;2.20;;
19257;SDS011;9763;48.780;9.212;2023-08-21T17:34:55;3.57;;;2.30;;
19257;SDS011;9763;48.780;9.212;2023-08-21T17:38:20;2.40;;;2.20;;
19257;SDS011;9763;48.780;9.212;2023-08-21T17:41:44;3.00;;;2.00;;
19257;SDS011;9763;48.780;9.212;2023-08-21T17:45:08;2.30;;;1.93;;
19257;SDS011;9763;48.780;9.212;2023-08-21T17:48:32;6.93;;;2.33;;
19257;SDS011;9763;48.780;9.212;2023-08-21T17:51:56;2.50;;;2.23;;
19257;SDS011;9763;48.780;9.212;2023-08-21T17:55:21;2.57;;;2.20;;
19257;SDS011;9763;48.780;9.212;2023-08-21T17:58:46;3.00;;;2.43;;
19257;SDS011;9763;48.780;9.212;2023-08-21T18:02:10;2.47;;;2.27;;
19257;SDS011;9763;48.780;9.212;2023-08-21T18:05:48;3.13;;;2.07;;
19257;SDS011;9763;48.780;9.212;2023-08-21T18:09:11;3.27;;;2.67;;
19257;SDS011;9763;48.780;9.212;2023-08-21T18:12:36;4.33;;;2.20;;
19257;SDS011;9763;48.780;9.212;2023-08-21T18:16:00;3.00;;;2.40;;
19257;SDS011;9763;48.780;9.212;2023-08-21T18:19:24;2.80;;;2.60;;
19257;SDS011;9763;48.780;9.212;2023-08-21T18:23:06;2.20;;;2.00;;
19257;SDS011;9763;48.780;9.212;2023-08-21T18:26:30;2.47;;;2.27;;
19257;SDS011;9763;48.780;9.212;2023-08-21T18:29:55;2.40;;;2.20;;
19257;SDS011;9763;48.780;9.212;2023-08-21T18:33:20;3.13;;;2.40;;
19257;SDS011;9763;48.780;9.212;2023-08-21T18:36:45;2.53;;;2.33;;
19257;SDS011;9763;48.780;9.212;2023-08-21T18:40:09;2.60;;;2.40;;
19257;SDS011;9763;48.780;9.212;2023-08-21T18:43:33;2.30;;;2.10;;
19257;SDS011;9763;48.780;9.212;2023-08-21T18:46:58;3.00;;;2.50;;
19257;SDS011;9763;48.780;9.212;2023-08-21T18:50:31;2.50;;;2.30;;
19257;SDS011;9763;48.780;9.212;2023-08-21T18:53:58;2.77;;;2.50;;
19257;SDS011;9763;48.780;9.212;2023-08-21T18:57:21;3.80;;;2.80;;
19257;SDS011;9763;48.780;9.212;2023-08-21T19:00:45;3.47;;;2.40;;
19257;SDS011;9763;48.780;9.212;2023-08-21T19:04:10;2.70;;;2.43;;
19257;SDS011;9763;48.780;9.212;2023-08-21T19:07:35;2.30;;;2.10;;
19257;SDS011;9763;48.780;9.212;2023-08-21T19:11:00;3.10;;;2.80;;
19257;SDS011;9763;48.780;9.212;2023-08-21T19:14:24;3.60;;;2.57;;
19257;SDS011;9763;48.780;9.212;2023-08-21T19:17:48;2.60;;;2.40;;
19257;SDS011;9763;48.780;9.212;2023-08-21T19:21:13;2.53;;;2.33;;
19257;SDS011;9763;48.780;9.212;2023-08-21T19:24:37;2.57;;;2.30;;
19257;SDS011;9763;48.780;9.212;2023-08-21T19:28:01;2.60;;;2.40;;
19257;SDS011;9763;48.780;9.212;2023-08-21T19:31:27;2.73;;;2.30;;
19257;SDS011;9763;48.780;9.212;2023-08-21T19:34:51;3.17;;;2.87;;
19257;SDS011;9763;48.780;9.212;2023-08-21T19:38:19;3.57;;;3.10;;
19257;SDS011;9763;48.780;9.212;2023-08-21T19:41:42;2.90;;;2.63;;
19257;SDS011;9763;48.780;9.212;2023-08-21T19:45:07;4.50;;;3.17;;
19257;SDS011;9763;48.780;9.212;2023-08-21T19:48:32;3.30;;;3.00;;
19257;SDS011;9763;48.780;9.212;2023-08-21T19:51:56;2.67;;;2.47;;
19257;SDS011;9763;48.780;9.212;2023-08-21T19:55:21;2.67;;;2.47;;
19257;SDS011;9763;48.780;9.212;2023-08-21T19:58:46;2.70;;;2.50;;
19257;SDS011;9763;48.780;9.212;2023-08-21T20:02:09;2.77;;;2.40;;
19257;SDS011;9763;48.780;9.212;2023-08-21T20:05:33;2.53;;;2.33;;
19257;SDS011;9763;48.780;9.212;2023-08-21T20:08:56;2.80;;;2.60;;
19257;SDS011;9763;48.780;9.212;2023-08-21T20:12:22;3.27;;;2.97;;
19257;SDS011;9763;48.780;9.212;2023-08-21T20:15:46;3.20;;;2.80;;
19257;SDS011;9763;48.780;9.212;2023-08-21T20:19:10;2.50;;;2.30;;
19257;SDS011;9763;48.780;9.212;2023-08-21T20:22:34;2.87;;;2.57;;
19257;SDS011;9763;48.780;9.212;2023-08-21T20:25:57;2.43;;;2.23;;
19257;SDS011;9763;48.780;9.212;2023-08-21T20:29:22;3.17;;;2.87;;
19257;SDS011;9763;48.780;9.212;2023-08-21T20:32:46;3.90;;;2.67;;
19257;SDS011;9763;48.780;9.212;2023-08-21T20:36:09;2.90;;;2.60;;
19257;SDS011;9763;48.780;9.212;2023-08-21T20:39:33;3.07;;;2.30;;
19257;SDS011;9763;48.780;9.212;2023-08-21T20:42:57;2.60;;;2.40;;
19257;SDS011;9763;48.780;9.212;2023-08-21T20:46:22;3.00;;;2.60;;
19257;SDS011;9763;48.780;9.212;2023-08-21T20:49:46;4.23;;;2.60;;
19257;SDS011;9763;48.780;9.212;2023-08-21T20:53:09;3.10;;;2.80;;
19257;SDS011;9763;48.780;9.212;2023-08-21T20:56:33;3.17;;;2.87;;
19257;SDS011;9763;48.780;9.212;2023-08-21T20:59:57;3.60;;;2.97;;